sensor_id;sensor_type;location;lat;lon;timestamp;P1;durP1;ratioP1;P2;durP2;ratioP2
4084;SDS011;2057;50.858;6.572;2023-08-06T00:01:52;3.07;;;2.23;;
4084;SDS011;2057;50.858;6.572;2023-08-06T00:04:17;4.03;;;2.70;;
4084;SDS011;2057;50.858;6.572;2023-08-06T00:06:44;8.47;;;3.30;;
4084;SDS011;2057;50.858;6.572;2023-08-06T00:09:09;3.40;;;2.63;;
4084;SDS011;2057;50.858;6.572;2023-08-06T00:11:35;10.20;;;3.40;;
4084;SDS011;2057;50.858;6.572;2023-08-06T00:14:00;4.07;;;2.53;;
4084;SDS011;2057;50.858;6.572;2023-08-06T00:16:25;1.97;;;1.87;;
4084;SDS011;2057;50.858;6.572;2023-08-06T00:18:51;2.97;;;2.67;;
4084;SDS011;2057;50.858;6.572;2023-08-06T00:21:18;4.10;;;2.80;;
4084;SDS011;2057;50.858;6.572;2023-08-06T00:23:44;5.53;;;2.53;;
4084;SDS011;2057;50.858;6.572;2023-08-06T00:26:09;4.80;;;2.30;;
4084;SDS011;2057;50.858;6.572;2023-08-06T00:28:34;3.13;;;2.30;;
4084;SDS011;2057;50.858;6.572;2023-08-06T00:30:59;4.67;;;2.90;;
4084;SDS011;2057;50.858;6.572;2023-08-06T00:33:25;3.30;;;2.40;;
4084;SDS011;2057;50.858;6.572;2023-08-06T00:35:50;2.50;;;2.20;;
4084;SDS011;2057;50.858;6.572;2023-08-06T00:38:16;4.43;;;2.00;;
4084;SDS011;2057;50.858;6.572;2023-08-06T00:40:41;3.97;;;1.93;;
4084;SDS011;2057;50.858;6.572;2023-08-06T00:43:07;7.67;;;2.20;;
4084;SDS011;2057;50.858;6.572;2023-08-06T00:45:36;2.47;;;2.27;;
4084;SDS011;2057;50.858;6.572;2023-08-06T00:48:02;3.43;;;2.33;;
4084;SDS011;2057;50.858;6.572;2023-08-06T00:50:30;2.50;;;2.13;;
4084;SDS011;2057;50.858;6.572;2023-08-06T00:52:55;6.10;;;2.07;;
4084;SDS011;2057;50.858;6.572;2023-08-06T00:55:21;1.97;;;1.87;;
4084;SDS011;2057;50.858;6.572;2023-08-06T00:57:47;3.60;;;2.20;;
4084;SDS011;2057;50.858;6.572;2023-08-06T01:00:17;6.70;;;2.13;;
4084;SDS011;2057;50.858;6.572;2023-08-06T01:02:44;4.07;;;1.90;;
4084;SDS011;2057;50.858;6.572;2023-08-06T01:05:11;2.90;;;2.13;;
4084;SDS011;2057;50.858;6.572;2023-08-06T01:07:56;2.30;;;1.60;;
4084;SDS011;2057;50.858;6.572;2023-08-06T01:13:54;2.60;;;1.87;;
4084;SDS011;2057;50.858;6.572;2023-08-06T01:16:33;3.40;;;1.70;;
4084;SDS011;2057;50.858;6.572;2023-08-06T01:18:58;3.00;;;2.20;;
4084;SDS011;2057;50.858;6.572;2023-08-06T01:21:24;2.27;;;2.00;;
4084;SDS011;2057;50.858;6.572;2023-08-06T01:23:49;2.50;;;1.40;;
4084;SDS011;2057;50.858;6.572;2023-08-06T01:26:30;1.50;;;1.30;;
4084;SDS011;2057;50.858;6.572;2023-08-06T01:31:41;5.27;;;1.63;;
4084;SDS011;2057;50.858;6.572;2023-08-06T01:34:09;4.53;;;1.67;;
4084;SDS011;2057;50.858;6.572;2023-08-06T01:36:38;5.03;;;1.73;;
4084;SDS011;2057;50.858;6.572;2023-08-06T01:39:05;3.53;;;2.27;;
4084;SDS011;2057;50.858;6.572;2023-08-06T01:41:31;1.57;;;1.40;;
4084;SDS011;2057;50.858;6.572;2023-08-06T01:43:56;3.70;;;2.40;;
4084;SDS011;2057;50.858;6.572;2023-08-06T01:46:21;3.17;;;1.40;;
4084;SDS011;2057;50.858;6.572;2023-08-06T01:48:47;3.37;;;2.27;;
4084;SDS011;2057;50.858;6.572;2023-08-06T01:51:12;1.90;;;1.80;;
4084;SDS011;2057;50.858;6.572;2023-08-06T01:53:37;3.50;;;2.27;;
4084;SDS011;2057;50.858;6.572;2023-08-06T01:56:03;2.10;;;1.80;;
4084;SDS011;2057;50.858;6.572;2023-08-06T01:58:28;2.27;;;2.03;;
4084;SDS011;2057;50.858;6.572;2023-08-06T02:00:53;3.90;;;2.17;;
4084;SDS011;2057;50.858;6.572;2023-08-06T02:03:19;2.17;;;1.70;;
4084;SDS011;2057;50.858;6.572;2023-08-06T02:05:44;1.90;;;1.80;;
4084;SDS011;2057;50.858;6.572;2023-08-06T02:08:10;5.73;;;1.60;;
4084;SDS011;2057;50.858;6.572;2023-08-06T02:10:36;2.70;;;2.17;;
4084;SDS011;2057;50.858;6.572;2023-08-06T02:13:01;2.10;;;1.90;;
4084;SDS011;2057;50.858;6.572;2023-08-06T02:15:26;3.33;;;1.90;;
4084;SDS011;2057;50.858;6.572;2023-08-06T02:17:52;2.80;;;1.50;;
4084;SDS011;2057;50.858;6.572;2023-08-06T02:20:17;2.17;;;1.73;;
4084;SDS011;2057;50.858;6.572;2023-08-06T02:22:42;1.93;;;1.70;;
4084;SDS011;2057;50.858;6.572;2023-08-06T02:25:08;2.50;;;1.90;;
4084;SDS011;2057;50.858;6.572;2023-08-06T02:27:33;6.30;;;2.20;;
4084;SDS011;2057;50.858;6.572;2023-08-06T02:29:59;1.70;;;1.50;;
4084;SDS011;2057;50.858;6.572;2023-08-06T02:32:24;2.73;;;2.00;;
4084;SDS011;2057;50.858;6.572;2023-08-06T02:34:51;1.93;;;1.73;;
4084;SDS011;2057;50.858;6.572;2023-08-06T02:37:17;10.27;;;2.43;;
4084;SDS011;2057;50.858;6.572;2023-08-06T02:39:42;2.00;;;1.90;;
4084;SDS011;2057;50.858;6.572;2023-08-06T02:42:08;4.00;;;1.63;;
4084;SDS011;2057;50.858;6.572;2023-08-06T02:44:34;4.60;;;2.10;;
4084;SDS011;2057;50.858;6.572;2023-08-06T02:47:00;3.10;;;2.10;;
4084;SDS011;2057;50.858;6.572;2023-08-06T02:49:25;4.40;;;2.00;;
4084;SDS011;2057;50.858;6.572;2023-08-06T02:51:53;2.40;;;2.20;;
4084;SDS011;2057;50.858;6.572;2023-08-06T02:54:19;1.80;;;1.70;;
4084;SDS011;2057;50.858;6.572;2023-08-06T02:56:46;3.37;;;1.70;;
4084;SDS011;2057;50.858;6.572;2023-08-06T02:59:12;6.83;;;2.10;;
4084;SDS011;2057;50.858;6.572;2023-08-06T03:01:38;2.40;;;1.87;;
4084;SDS011;2057;50.858;6.572;2023-08-06T03:04:04;2.57;;;1.97;;
4084;SDS011;2057;50.858;6.572;2023-08-06T03:06:29;4.03;;;1.53;;
4084;SDS011;2057;50.858;6.572;2023-08-06T03:08:55;2.00;;;1.80;;
4084;SDS011;2057;50.858;6.572;2023-08-06T03:11:20;4.70;;;1.90;;
4084;SDS011;2057;50.858;6.572;2023-08-06T03:13:46;4.37;;;2.03;;
4084;SDS011;2057;50.858;6.572;2023-08-06T03:16:12;1.80;;;1.70;;
4084;SDS011;2057;50.858;6.572;2023-08-06T03:18:37;14.27;;;1.83;;
4084;SDS011;2057;50.858;6.572;2023-08-06T03:21:03;3.23;;;1.40;;
4084;SDS011;2057;50.858;6.572;2023-08-06T03:23:28;5.50;;;1.57;;
4084;SDS011;2057;50.858;6.572;2023-08-06T03:25:53;5.90;;;2.07;;
4084;SDS011;2057;50.858;6.572;2023-08-06T03:28:19;4.97;;;1.93;;
4084;SDS011;2057;50.858;6.572;2023-08-06T03:30:44;3.97;;;2.67;;
4084;SDS011;2057;50.858;6.572;2023-08-06T03:33:09;1.97;;;1.40;;
4084;SDS011;2057;50.858;6.572;2023-08-06T03:35:35;7.23;;;1.97;;
4084;SDS011;2057;50.858;6.572;2023-08-06T03:38:00;5.90;;;2.10;;
4084;SDS011;2057;50.858;6.572;2023-08-06T03:40:28;2.43;;;1.57;;
4084;SDS011;2057;50.858;6.572;2023-08-06T03:42:55;5.00;;;1.90;;
4084;SDS011;2057;50.858;6.572;2023-08-06T03:45:21;4.90;;;2.10;;
4084;SDS011;2057;50.858;6.572;2023-08-06T03:47:46;2.07;;;1.87;;
4084;SDS011;2057;50.858;6.572;2023-08-06T03:50:17;5.60;;;1.70;;
4084;SDS011;2057;50.858;6.572;2023-08-06T03:52:44;3.60;;;2.33;;
4084;SDS011;2057;50.858;6.572;2023-08-06T03:55:10;6.40;;;1.83;;
4084;SDS011;2057;50.858;6.572;2023-08-06T03:57:35;4.50;;;2.73;;
4084;SDS011;2057;50.858;6.572;2023-08-06T04:00:03;2.60;;;2.00;;
4084;SDS011;2057;50.858;6.572;2023-08-06T04:02:29;7.90;;;3.10;;
4084;SDS011;2057;50.858;6.572;2023-08-06T04:04:54;3.47;;;2.33;;
4084;SDS011;2057;50.858;6.572;2023-08-06T04:07:19;2.47;;;2.10;;
4084;SDS011;2057;50.858;6.572;2023-08-06T04:09:57;3.00;;;1.87;;
4084;SDS011;2057;50.858;6.572;2023-08-06T04:12:24;2.70;;;2.33;;
4084;SDS011;2057;50.858;6.572;2023-08-06T04:14:50;11.93;;;2.47;;
4084;SDS011;2057;50.858;6.572;2023-08-06T04:17:17;6.70;;;1.93;;
4084;SDS011;2057;50.858;6.572;2023-08-06T04:19:45;3.97;;;2.33;;
4084;SDS011;2057;50.858;6.572;2023-08-06T04:22:14;2.73;;;2.10;;
4084;SDS011;2057;50.858;6.572;2023-08-06T04:24:45;3.00;;;2.10;;
4084;SDS011;2057;50.858;6.572;2023-08-06T04:27:10;6.67;;;2.17;;
4084;SDS011;2057;50.858;6.572;2023-08-06T04:29:36;3.30;;;2.27;;
4084;SDS011;2057;50.858;6.572;2023-08-06T04:32:03;5.77;;;2.50;;
4084;SDS011;2057;50.858;6.572;2023-08-06T04:34:33;3.97;;;2.03;;
4084;SDS011;2057;50.858;6.572;2023-08-06T04:37:01;5.80;;;2.47;;
4084;SDS011;2057;50.858;6.572;2023-08-06T04:39:27;8.83;;;2.80;;
4084;SDS011;2057;50.858;6.572;2023-08-06T04:41:52;7.37;;;2.50;;
4084;SDS011;2057;50.858;6.572;2023-08-06T04:44:18;4.77;;;3.40;;
4084;SDS011;2057;50.858;6.572;2023-08-06T04:46:43;8.00;;;3.17;;
4084;SDS011;2057;50.858;6.572;2023-08-06T04:49:08;4.83;;;1.97;;
4084;SDS011;2057;50.858;6.572;2023-08-06T04:51:34;2.13;;;1.93;;
4084;SDS011;2057;50.858;6.572;2023-08-06T04:54:00;4.00;;;2.03;;
4084;SDS011;2057;50.858;6.572;2023-08-06T04:56:28;3.87;;;2.63;;
4084;SDS011;2057;50.858;6.572;2023-08-06T04:58:54;7.77;;;2.70;;
4084;SDS011;2057;50.858;6.572;2023-08-06T05:01:19;2.87;;;1.77;;
4084;SDS011;2057;50.858;6.572;2023-08-06T05:03:44;3.30;;;2.40;;
4084;SDS011;2057;50.858;6.572;2023-08-06T05:06:11;3.90;;;2.93;;
4084;SDS011;2057;50.858;6.572;2023-08-06T05:08:36;2.83;;;2.37;;
4084;SDS011;2057;50.858;6.572;2023-08-06T05:11:02;2.87;;;2.30;;
4084;SDS011;2057;50.858;6.572;2023-08-06T05:13:27;2.20;;;1.80;;
4084;SDS011;2057;50.858;6.572;2023-08-06T05:15:55;10.70;;;2.40;;
4084;SDS011;2057;50.858;6.572;2023-08-06T05:18:20;4.20;;;2.33;;
4084;SDS011;2057;50.858;6.572;2023-08-06T05:20:46;9.83;;;1.87;;
4084;SDS011;2057;50.858;6.572;2023-08-06T05:23:11;3.77;;;2.53;;
4084;SDS011;2057;50.858;6.572;2023-08-06T05:25:37;4.30;;;2.40;;
4084;SDS011;2057;50.858;6.572;2023-08-06T05:28:03;2.50;;;2.23;;
4084;SDS011;2057;50.858;6.572;2023-08-06T05:30:29;7.53;;;2.10;;
4084;SDS011;2057;50.858;6.572;2023-08-06T05:32:54;4.00;;;2.57;;
4084;SDS011;2057;50.858;6.572;2023-08-06T05:35:20;5.03;;;2.60;;
4084;SDS011;2057;50.858;6.572;2023-08-06T05:37:46;3.60;;;2.63;;
4084;SDS011;2057;50.858;6.572;2023-08-06T05:40:11;3.40;;;2.10;;
4084;SDS011;2057;50.858;6.572;2023-08-06T05:42:37;5.93;;;2.13;;
4084;SDS011;2057;50.858;6.572;2023-08-06T05:45:02;4.53;;;2.27;;
4084;SDS011;2057;50.858;6.572;2023-08-06T05:47:28;5.93;;;2.00;;
4084;SDS011;2057;50.858;6.572;2023-08-06T05:49:53;4.37;;;2.17;;
4084;SDS011;2057;50.858;6.572;2023-08-06T05:52:18;2.70;;;1.73;;
4084;SDS011;2057;50.858;6.572;2023-08-06T05:54:44;2.50;;;1.60;;
4084;SDS011;2057;50.858;6.572;2023-08-06T05:57:09;3.50;;;1.93;;
4084;SDS011;2057;50.858;6.572;2023-08-06T05:59:34;3.73;;;1.83;;
4084;SDS011;2057;50.858;6.572;2023-08-06T06:02:00;3.93;;;1.60;;
4084;SDS011;2057;50.858;6.572;2023-08-06T06:04:25;2.43;;;1.70;;
4084;SDS011;2057;50.858;6.572;2023-08-06T06:06:51;1.70;;;1.33;;
4084;SDS011;2057;50.858;6.572;2023-08-06T06:09:16;3.53;;;2.00;;
4084;SDS011;2057;50.858;6.572;2023-08-06T06:11:41;2.70;;;1.70;;
4084;SDS011;2057;50.858;6.572;2023-08-06T06:14:07;2.73;;;1.50;;
4084;SDS011;2057;50.858;6.572;2023-08-06T06:16:32;3.03;;;1.30;;
4084;SDS011;2057;50.858;6.572;2023-08-06T06:19:00;1.83;;;1.57;;
4084;SDS011;2057;50.858;6.572;2023-08-06T06:21:25;4.13;;;2.50;;
4084;SDS011;2057;50.858;6.572;2023-08-06T06:23:50;8.53;;;1.63;;
4084;SDS011;2057;50.858;6.572;2023-08-06T06:26:19;2.00;;;1.50;;
4084;SDS011;2057;50.858;6.572;2023-08-06T06:28:44;7.10;;;2.07;;
4084;SDS011;2057;50.858;6.572;2023-08-06T06:31:11;1.70;;;1.60;;
4084;SDS011;2057;50.858;6.572;2023-08-06T06:33:37;2.23;;;1.93;;
4084;SDS011;2057;50.858;6.572;2023-08-06T06:36:02;5.80;;;2.00;;
4084;SDS011;2057;50.858;6.572;2023-08-06T06:38:32;4.90;;;2.20;;
4084;SDS011;2057;50.858;6.572;2023-08-06T06:40:58;2.80;;;2.20;;
4084;SDS011;2057;50.858;6.572;2023-08-06T06:43:24;8.23;;;2.37;;
4084;SDS011;2057;50.858;6.572;2023-08-06T06:46:07;3.20;;;2.20;;
4084;SDS011;2057;50.858;6.572;2023-08-06T06:48:33;3.30;;;2.20;;
4084;SDS011;2057;50.858;6.572;2023-08-06T06:50:58;3.47;;;1.90;;
4084;SDS011;2057;50.858;6.572;2023-08-06T06:53:24;3.47;;;2.00;;
4084;SDS011;2057;50.858;6.572;2023-08-06T06:55:55;6.60;;;2.60;;
4084;SDS011;2057;50.858;6.572;2023-08-06T06:58:27;7.83;;;2.23;;
4084;SDS011;2057;50.858;6.572;2023-08-06T07:00:52;3.30;;;2.17;;
4084;SDS011;2057;50.858;6.572;2023-08-06T07:03:19;3.73;;;2.40;;
4084;SDS011;2057;50.858;6.572;2023-08-06T07:05:45;4.27;;;2.67;;
4084;SDS011;2057;50.858;6.572;2023-08-06T07:08:10;7.50;;;2.70;;
4084;SDS011;2057;50.858;6.572;2023-08-06T07:10:36;6.87;;;4.17;;
4084;SDS011;2057;50.858;6.572;2023-08-06T07:13:02;5.13;;;3.03;;
4084;SDS011;2057;50.858;6.572;2023-08-06T07:15:27;4.00;;;2.50;;
4084;SDS011;2057;50.858;6.572;2023-08-06T07:17:52;4.23;;;2.83;;
4084;SDS011;2057;50.858;6.572;2023-08-06T07:20:18;4.97;;;2.90;;
4084;SDS011;2057;50.858;6.572;2023-08-06T07:22:43;7.17;;;3.80;;
4084;SDS011;2057;50.858;6.572;2023-08-06T07:25:09;7.80;;;4.20;;
4084;SDS011;2057;50.858;6.572;2023-08-06T07:27:34;4.20;;;3.80;;
4084;SDS011;2057;50.858;6.572;2023-08-06T07:30:00;7.57;;;4.00;;
4084;SDS011;2057;50.858;6.572;2023-08-06T07:32:28;8.93;;;3.90;;
4084;SDS011;2057;50.858;6.572;2023-08-06T07:34:53;4.30;;;3.90;;
4084;SDS011;2057;50.858;6.572;2023-08-06T07:37:24;3.47;;;3.10;;
4084;SDS011;2057;50.858;6.572;2023-08-06T07:39:49;5.63;;;3.53;;
4084;SDS011;2057;50.858;6.572;2023-08-06T07:42:15;13.30;;;3.13;;
4084;SDS011;2057;50.858;6.572;2023-08-06T07:44:40;9.30;;;4.00;;
4084;SDS011;2057;50.858;6.572;2023-08-06T07:47:06;2.43;;;2.23;;
4084;SDS011;2057;50.858;6.572;2023-08-06T07:49:31;3.60;;;2.83;;
4084;SDS011;2057;50.858;6.572;2023-08-06T07:51:56;2.33;;;2.13;;
4084;SDS011;2057;50.858;6.572;2023-08-06T07:54:21;2.50;;;1.90;;
4084;SDS011;2057;50.858;6.572;2023-08-06T07:56:49;1.73;;;1.63;;
4084;SDS011;2057;50.858;6.572;2023-08-06T07:59:14;2.37;;;1.70;;
4084;SDS011;2057;50.858;6.572;2023-08-06T08:01:40;6.63;;;1.20;;
4084;SDS011;2057;50.858;6.572;2023-08-06T08:04:05;1.77;;;0.93;;
4084;SDS011;2057;50.858;6.572;2023-08-06T08:06:30;2.17;;;1.20;;
4084;SDS011;2057;50.858;6.572;2023-08-06T08:08:56;3.50;;;1.40;;
4084;SDS011;2057;50.858;6.572;2023-08-06T08:11:21;1.50;;;1.07;;
4084;SDS011;2057;50.858;6.572;2023-08-06T08:13:46;2.70;;;1.00;;
4084;SDS011;2057;50.858;6.572;2023-08-06T08:16:12;0.90;;;0.90;;
4084;SDS011;2057;50.858;6.572;2023-08-06T08:18:39;1.53;;;1.00;;
4084;SDS011;2057;50.858;6.572;2023-08-06T08:21:05;2.30;;;1.00;;
4084;SDS011;2057;50.858;6.572;2023-08-06T08:23:30;1.10;;;1.00;;
4084;SDS011;2057;50.858;6.572;2023-08-06T08:25:56;0.77;;;0.77;;
4084;SDS011;2057;50.858;6.572;2023-08-06T08:28:21;4.33;;;0.80;;
4084;SDS011;2057;50.858;6.572;2023-08-06T08:30:47;3.10;;;0.80;;
4084;SDS011;2057;50.858;6.572;2023-08-06T08:33:12;0.77;;;0.77;;
4084;SDS011;2057;50.858;6.572;2023-08-06T08:35:38;0.70;;;0.70;;
4084;SDS011;2057;50.858;6.572;2023-08-06T08:38:03;1.20;;;0.80;;
4084;SDS011;2057;50.858;6.572;2023-08-06T08:40:32;1.47;;;0.90;;
4084;SDS011;2057;50.858;6.572;2023-08-06T08:43:01;1.50;;;0.77;;
4084;SDS011;2057;50.858;6.572;2023-08-06T08:45:28;0.80;;;0.80;;
4084;SDS011;2057;50.858;6.572;2023-08-06T08:47:54;2.60;;;1.00;;
4084;SDS011;2057;50.858;6.572;2023-08-06T08:50:20;3.73;;;1.10;;
4084;SDS011;2057;50.858;6.572;2023-08-06T08:52:46;2.70;;;1.40;;
4084;SDS011;2057;50.858;6.572;2023-08-06T08:55:15;1.80;;;1.57;;
4084;SDS011;2057;50.858;6.572;2023-08-06T08:57:41;1.40;;;1.30;;
4084;SDS011;2057;50.858;6.572;2023-08-06T09:00:07;1.17;;;1.10;;
4084;SDS011;2057;50.858;6.572;2023-08-06T09:02:33;1.67;;;1.20;;
4084;SDS011;2057;50.858;6.572;2023-08-06T09:04:59;1.60;;;1.00;;
4084;SDS011;2057;50.858;6.572;2023-08-06T09:07:32;5.13;;;1.23;;
4084;SDS011;2057;50.858;6.572;2023-08-06T09:10:03;0.80;;;0.80;;
4084;SDS011;2057;50.858;6.572;2023-08-06T09:12:30;1.00;;;0.90;;
4084;SDS011;2057;50.858;6.572;2023-08-06T09:14:55;4.63;;;1.17;;
4084;SDS011;2057;50.858;6.572;2023-08-06T09:17:21;5.70;;;1.43;;
4084;SDS011;2057;50.858;6.572;2023-08-06T09:19:46;1.97;;;1.00;;
4084;SDS011;2057;50.858;6.572;2023-08-06T09:22:13;2.30;;;1.00;;
4084;SDS011;2057;50.858;6.572;2023-08-06T09:24:42;2.40;;;0.90;;
4084;SDS011;2057;50.858;6.572;2023-08-06T09:27:14;1.50;;;1.40;;
4084;SDS011;2057;50.858;6.572;2023-08-06T09:29:43;1.23;;;1.10;;
4084;SDS011;2057;50.858;6.572;2023-08-06T09:32:10;1.53;;;1.43;;
4084;SDS011;2057;50.858;6.572;2023-08-06T09:34:38;7.17;;;1.70;;
4084;SDS011;2057;50.858;6.572;2023-08-06T09:37:04;2.50;;;1.80;;
4084;SDS011;2057;50.858;6.572;2023-08-06T09:39:30;4.50;;;1.33;;
4084;SDS011;2057;50.858;6.572;2023-08-06T09:41:56;1.00;;;1.00;;
4084;SDS011;2057;50.858;6.572;2023-08-06T09:44:22;1.17;;;1.10;;
4084;SDS011;2057;50.858;6.572;2023-08-06T09:46:58;3.63;;;1.27;;
4084;SDS011;2057;50.858;6.572;2023-08-06T09:49:25;1.40;;;1.30;;
4084;SDS011;2057;50.858;6.572;2023-08-06T09:51:52;3.63;;;1.50;;
4084;SDS011;2057;50.858;6.572;2023-08-06T09:54:23;3.73;;;2.13;;
4084;SDS011;2057;50.858;6.572;2023-08-06T09:56:49;3.83;;;3.00;;
4084;SDS011;2057;50.858;6.572;2023-08-06T09:59:18;3.00;;;2.27;;
4084;SDS011;2057;50.858;6.572;2023-08-06T10:01:45;12.93;;;3.23;;
4084;SDS011;2057;50.858;6.572;2023-08-06T10:04:10;4.23;;;2.97;;
4084;SDS011;2057;50.858;6.572;2023-08-06T10:06:40;5.23;;;2.90;;
4084;SDS011;2057;50.858;6.572;2023-08-06T10:09:07;5.83;;;2.93;;
4084;SDS011;2057;50.858;6.572;2023-08-06T10:11:34;3.37;;;2.27;;
4084;SDS011;2057;50.858;6.572;2023-08-06T10:14:08;12.33;;;3.40;;
4084;SDS011;2057;50.858;6.572;2023-08-06T10:16:36;4.73;;;2.90;;
4084;SDS011;2057;50.858;6.572;2023-08-06T10:19:04;4.77;;;3.20;;
4084;SDS011;2057;50.858;6.572;2023-08-06T10:21:35;7.40;;;2.80;;
4084;SDS011;2057;50.858;6.572;2023-08-06T10:24:03;5.13;;;3.10;;
4084;SDS011;2057;50.858;6.572;2023-08-06T10:26:34;3.83;;;2.80;;
4084;SDS011;2057;50.858;6.572;2023-08-06T10:28:59;11.13;;;2.87;;
4084;SDS011;2057;50.858;6.572;2023-08-06T10:34:20;8.43;;;2.80;;
4084;SDS011;2057;50.858;6.572;2023-08-06T10:36:45;6.70;;;2.20;;
4084;SDS011;2057;50.858;6.572;2023-08-06T10:39:13;11.83;;;2.07;;
4084;SDS011;2057;50.858;6.572;2023-08-06T10:41:44;6.63;;;2.80;;
4084;SDS011;2057;50.858;6.572;2023-08-06T10:44:10;14.43;;;2.37;;
4084;SDS011;2057;50.858;6.572;2023-08-06T10:46:39;11.83;;;2.20;;
4084;SDS011;2057;50.858;6.572;2023-08-06T10:49:04;11.73;;;2.27;;
4084;SDS011;2057;50.858;6.572;2023-08-06T10:51:32;10.17;;;2.20;;
4084;SDS011;2057;50.858;6.572;2023-08-06T10:53:57;13.83;;;3.17;;
4084;SDS011;2057;50.858;6.572;2023-08-06T10:56:23;13.70;;;2.80;;
4084;SDS011;2057;50.858;6.572;2023-08-06T10:58:56;7.50;;;2.80;;
4084;SDS011;2057;50.858;6.572;2023-08-06T11:01:26;9.70;;;2.20;;
4084;SDS011;2057;50.858;6.572;2023-08-06T11:03:54;8.27;;;2.80;;
4084;SDS011;2057;50.858;6.572;2023-08-06T11:06:20;9.47;;;2.27;;
4084;SDS011;2057;50.858;6.572;2023-08-06T11:08:48;8.00;;;2.20;;
4084;SDS011;2057;50.858;6.572;2023-08-06T11:11:15;16.87;;;2.67;;
4084;SDS011;2057;50.858;6.572;2023-08-06T11:13:44;6.90;;;2.20;;
4084;SDS011;2057;50.858;6.572;2023-08-06T11:16:12;4.77;;;2.03;;
4084;SDS011;2057;50.858;6.572;2023-08-06T11:18:39;7.90;;;2.10;;
4084;SDS011;2057;50.858;6.572;2023-08-06T11:21:05;7.03;;;1.90;;
4084;SDS011;2057;50.858;6.572;2023-08-06T11:23:34;11.90;;;2.63;;
4084;SDS011;2057;50.858;6.572;2023-08-06T11:26:00;5.00;;;1.93;;
4084;SDS011;2057;50.858;6.572;2023-08-06T11:28:26;3.50;;;1.73;;
4084;SDS011;2057;50.858;6.572;2023-08-06T11:30:51;3.73;;;2.03;;
4084;SDS011;2057;50.858;6.572;2023-08-06T11:33:23;7.83;;;1.90;;
4084;SDS011;2057;50.858;6.572;2023-08-06T11:35:54;6.23;;;2.20;;
4084;SDS011;2057;50.858;6.572;2023-08-06T11:38:21;4.80;;;2.40;;
4084;SDS011;2057;50.858;6.572;2023-08-06T11:40:50;6.53;;;2.43;;
4084;SDS011;2057;50.858;6.572;2023-08-06T11:43:15;23.43;;;2.40;;
4084;SDS011;2057;50.858;6.572;2023-08-06T11:45:43;5.93;;;2.53;;
4084;SDS011;2057;50.858;6.572;2023-08-06T11:48:09;7.80;;;2.30;;
4084;SDS011;2057;50.858;6.572;2023-08-06T11:50:37;16.10;;;2.47;;
4084;SDS011;2057;50.858;6.572;2023-08-06T11:53:04;7.20;;;2.13;;
4084;SDS011;2057;50.858;6.572;2023-08-06T11:55:30;4.60;;;1.97;;
4084;SDS011;2057;50.858;6.572;2023-08-06T11:57:56;22.43;;;2.50;;
4084;SDS011;2057;50.858;6.572;2023-08-06T12:00:23;3.40;;;1.90;;
4084;SDS011;2057;50.858;6.572;2023-08-06T12:02:49;5.90;;;1.80;;
4084;SDS011;2057;50.858;6.572;2023-08-06T12:07:52;6.37;;;1.90;;
4084;SDS011;2057;50.858;6.572;2023-08-06T12:10:27;7.60;;;1.80;;
4084;SDS011;2057;50.858;6.572;2023-08-06T12:12:56;4.10;;;1.33;;
4084;SDS011;2057;50.858;6.572;2023-08-06T12:15:22;4.67;;;1.37;;
4084;SDS011;2057;50.858;6.572;2023-08-06T12:17:55;4.50;;;1.30;;
4084;SDS011;2057;50.858;6.572;2023-08-06T12:20:31;9.30;;;1.53;;
4084;SDS011;2057;50.858;6.572;2023-08-06T12:22:56;2.10;;;1.03;;
4084;SDS011;2057;50.858;6.572;2023-08-06T12:25:21;7.27;;;1.17;;
4084;SDS011;2057;50.858;6.572;2023-08-06T12:27:48;1.00;;;1.00;;
4084;SDS011;2057;50.858;6.572;2023-08-06T12:30:13;1.77;;;1.30;;
4084;SDS011;2057;50.858;6.572;2023-08-06T12:32:39;2.00;;;1.37;;
4084;SDS011;2057;50.858;6.572;2023-08-06T12:35:08;4.97;;;1.20;;
4084;SDS011;2057;50.858;6.572;2023-08-06T12:37:34;2.00;;;1.13;;
4084;SDS011;2057;50.858;6.572;2023-08-06T12:40:00;1.10;;;0.80;;
4084;SDS011;2057;50.858;6.572;2023-08-06T12:42:25;0.93;;;0.90;;
4084;SDS011;2057;50.858;6.572;2023-08-06T12:44:51;1.40;;;1.30;;
4084;SDS011;2057;50.858;6.572;2023-08-06T12:47:16;11.63;;;3.10;;
4084;SDS011;2057;50.858;6.572;2023-08-06T12:49:43;3.70;;;1.70;;
4084;SDS011;2057;50.858;6.572;2023-08-06T12:52:08;4.63;;;1.63;;
4084;SDS011;2057;50.858;6.572;2023-08-06T12:54:42;2.60;;;1.27;;
4084;SDS011;2057;50.858;6.572;2023-08-06T12:57:07;8.80;;;1.93;;
4084;SDS011;2057;50.858;6.572;2023-08-06T12:59:33;2.63;;;1.40;;
4084;SDS011;2057;50.858;6.572;2023-08-06T13:01:59;5.63;;;1.63;;
4084;SDS011;2057;50.858;6.572;2023-08-06T13:04:25;3.00;;;1.97;;
4084;SDS011;2057;50.858;6.572;2023-08-06T13:06:50;4.10;;;1.67;;
4084;SDS011;2057;50.858;6.572;2023-08-06T13:09:16;2.40;;;1.73;;
4084;SDS011;2057;50.858;6.572;2023-08-06T13:11:41;5.80;;;1.37;;
4084;SDS011;2057;50.858;6.572;2023-08-06T13:14:08;7.87;;;2.30;;
4084;SDS011;2057;50.858;6.572;2023-08-06T13:16:39;4.43;;;2.00;;
4084;SDS011;2057;50.858;6.572;2023-08-06T13:19:06;7.97;;;2.33;;
4084;SDS011;2057;50.858;6.572;2023-08-06T13:21:57;5.43;;;1.83;;
4084;SDS011;2057;50.858;6.572;2023-08-06T13:24:28;2.67;;;1.20;;
4084;SDS011;2057;50.858;6.572;2023-08-06T13:26:54;3.53;;;1.90;;
4084;SDS011;2057;50.858;6.572;2023-08-06T13:29:19;3.77;;;2.10;;
4084;SDS011;2057;50.858;6.572;2023-08-06T13:31:45;5.53;;;1.60;;
4084;SDS011;2057;50.858;6.572;2023-08-06T13:34:10;4.40;;;1.73;;
4084;SDS011;2057;50.858;6.572;2023-08-06T13:36:36;6.17;;;1.60;;
4084;SDS011;2057;50.858;6.572;2023-08-06T13:39:01;4.90;;;1.33;;
4084;SDS011;2057;50.858;6.572;2023-08-06T13:41:28;7.30;;;1.20;;
4084;SDS011;2057;50.858;6.572;2023-08-06T13:43:53;2.47;;;1.20;;
4084;SDS011;2057;50.858;6.572;2023-08-06T13:46:19;2.50;;;1.40;;
4084;SDS011;2057;50.858;6.572;2023-08-06T13:48:45;6.60;;;1.57;;
4084;SDS011;2057;50.858;6.572;2023-08-06T13:51:12;4.87;;;1.67;;
4084;SDS011;2057;50.858;6.572;2023-08-06T13:53:38;5.23;;;1.17;;
4084;SDS011;2057;50.858;6.572;2023-08-06T13:56:04;6.77;;;1.60;;
4084;SDS011;2057;50.858;6.572;2023-08-06T13:58:31;17.10;;;2.00;;
4084;SDS011;2057;50.858;6.572;2023-08-06T14:00:56;5.73;;;1.77;;
4084;SDS011;2057;50.858;6.572;2023-08-06T14:03:23;3.83;;;1.33;;
4084;SDS011;2057;50.858;6.572;2023-08-06T14:05:48;8.97;;;1.57;;
4084;SDS011;2057;50.858;6.572;2023-08-06T14:08:16;3.60;;;1.13;;
4084;SDS011;2057;50.858;6.572;2023-08-06T14:10:44;6.87;;;1.40;;
4084;SDS011;2057;50.858;6.572;2023-08-06T14:13:10;1.63;;;1.03;;
4084;SDS011;2057;50.858;6.572;2023-08-06T14:15:35;3.37;;;1.40;;
4084;SDS011;2057;50.858;6.572;2023-08-06T14:18:01;3.17;;;1.43;;
4084;SDS011;2057;50.858;6.572;2023-08-06T14:20:27;7.47;;;1.17;;
4084;SDS011;2057;50.858;6.572;2023-08-06T14:22:53;5.53;;;1.40;;
4084;SDS011;2057;50.858;6.572;2023-08-06T14:25:18;1.57;;;1.20;;
4084;SDS011;2057;50.858;6.572;2023-08-06T14:27:43;2.63;;;1.23;;
4084;SDS011;2057;50.858;6.572;2023-08-06T14:30:09;1.37;;;1.00;;
4084;SDS011;2057;50.858;6.572;2023-08-06T14:32:35;0.90;;;0.90;;
4084;SDS011;2057;50.858;6.572;2023-08-06T14:35:00;2.30;;;1.00;;
4084;SDS011;2057;50.858;6.572;2023-08-06T14:37:25;1.33;;;0.93;;
4084;SDS011;2057;50.858;6.572;2023-08-06T14:39:51;1.30;;;0.87;;
4084;SDS011;2057;50.858;6.572;2023-08-06T14:42:17;1.00;;;0.90;;
4084;SDS011;2057;50.858;6.572;2023-08-06T14:44:42;4.73;;;1.57;;
4084;SDS011;2057;50.858;6.572;2023-08-06T14:47:08;1.90;;;0.90;;
4084;SDS011;2057;50.858;6.572;2023-08-06T14:49:36;2.10;;;0.80;;
4084;SDS011;2057;50.858;6.572;2023-08-06T14:52:02;1.10;;;0.83;;
4084;SDS011;2057;50.858;6.572;2023-08-06T14:54:28;2.40;;;1.10;;
4084;SDS011;2057;50.858;6.572;2023-08-06T14:56:55;2.23;;;1.00;;
4084;SDS011;2057;50.858;6.572;2023-08-06T14:59:21;1.33;;;1.10;;
4084;SDS011;2057;50.858;6.572;2023-08-06T15:01:46;1.97;;;0.90;;
4084;SDS011;2057;50.858;6.572;2023-08-06T15:04:11;3.93;;;0.80;;
4084;SDS011;2057;50.858;6.572;2023-08-06T15:06:37;6.03;;;0.90;;
4084;SDS011;2057;50.858;6.572;2023-08-06T15:09:02;1.07;;;0.70;;
4084;SDS011;2057;50.858;6.572;2023-08-06T15:11:27;1.73;;;1.10;;
4084;SDS011;2057;50.858;6.572;2023-08-06T15:13:55;2.40;;;1.00;;
4084;SDS011;2057;50.858;6.572;2023-08-06T15:16:23;3.33;;;1.63;;
4084;SDS011;2057;50.858;6.572;2023-08-06T15:18:48;1.67;;;1.13;;
4084;SDS011;2057;50.858;6.572;2023-08-06T15:21:14;1.53;;;1.10;;
4084;SDS011;2057;50.858;6.572;2023-08-06T15:23:39;2.20;;;0.97;;